Aviation Digital Data Service (ADDS)

Output produced by METARs form (1714 UTC 21 September 2019)
found at http://aviationweather.gov/metar/data/
 
KBTR 211653Z 08006KT 10SM BKN030 BKN050 30/22 A3015 RMK AO2 SLP210 T03000222
KBTR 211120Z 2112/2212 VRB03KT P6SM FEW035 FEW250 
     FM211600 10005KT P6SM FEW030 FEW110 
     FM211700 10006KT P6SM VCTS FEW030CB SCT100 
     FM220000 12005KT P6SM FEW030 FEW070 
     FM220500 00000KT P6SM FEW025 FEW250 
     FM220900 00000KT P6SM FEW040 FEW250